Time;durP1;ratioP1;P1;durP2;ratioP2;P2;SDS_P1;SDS_P2;PMS_P1;PMS_P2;Temp;Humidity;BMP_temperature;BMP_pressure;BME280_temperature;BME280_humidity;BME280_pressure;Samples;Min_cycle;Max_cycle;Signal;HPM_P1;HPM_P2
2023/05/01 00:00:20;;;;;;;2.28;1.63;;;;;;;;;;5051982;28;20013;-69
2023/05/01 00:02:46;;;;;;;3.55;1.88;;;;;;;;;;5051949;28;20022;-69
2023/05/01 00:05:13;;;;;;;4.40;1.63;;;;;;;;;;5051707;28;20017;-69
2023/05/01 00:07:39;;;;;;;2.70;1.55;;;;;;;;;;5051773;28;20033;-69
2023/05/01 00:10:06;;;;;;;2.60;1.95;;;;;;;;;;5053536;28;20025;-69
2023/05/01 00:12:32;;;;;;;5.32;1.77;;;;;;;;;;5055518;28;20413;-69
2023/05/01 00:14:58;;;;;;;2.40;2.03;;;;;;;;;;5056135;28;20039;-69
2023/05/01 00:17:27;;;;;;;2.92;1.88;;;;;;;;;;5056061;28;20028;-69
2023/05/01 00:19:53;;;;;;;2.10;1.83;;;;;;;;;;5055713;28;20103;-69
2023/05/01 00:22:20;;;;;;;2.78;1.75;;;;;;;;;;5055546;28;20017;-69
2023/05/01 00:24:49;;;;;;;4.43;2.00;;;;;;;;;;5055075;28;20024;-69
2023/05/01 00:27:16;;;;;;;3.00;1.90;;;;;;;;;;5055202;28;20070;-69
2023/05/01 00:29:42;;;;;;;2.20;1.95;;;;;;;;;;5055341;28;20036;-69
2023/05/01 00:32:09;;;;;;;1.77;1.50;;;;;;;;;;5055198;28;20029;-69
2023/05/01 00:34:35;;;;;;;3.97;2.15;;;;;;;;;;5055208;28;20401;-69
2023/05/01 00:37:01;;;;;;;4.05;1.65;;;;;;;;;;5055161;28;20019;-69
2023/05/01 00:39:28;;;;;;;4.05;1.90;;;;;;;;;;5055011;28;20035;-69
2023/05/01 00:41:54;;;;;;;5.25;2.22;;;;;;;;;;5053794;28;20036;-69
2023/05/01 00:44:21;;;;;;;3.33;1.80;;;;;;;;;;5054308;28;20029;-69
2023/05/01 00:46:47;;;;;;;2.55;1.75;;;;;;;;;;5055158;28;20035;-69
2023/05/01 00:49:14;;;;;;;4.43;2.33;;;;;;;;;;5054884;28;20406;-69
2023/05/01 00:51:40;;;;;;;2.13;1.80;;;;;;;;;;5055065;28;20024;-68
2023/05/01 00:54:06;;;;;;;3.05;1.90;;;;;;;;;;5054494;28;20470;-69
2023/05/01 00:56:33;;;;;;;4.00;2.10;;;;;;;;;;5055060;28;20485;-69
2023/05/01 00:58:59;;;;;;;2.85;2.08;;;;;;;;;;5054877;28;20021;-69
2023/05/01 01:01:27;;;;;;;3.00;1.90;;;;;;;;;;5054962;28;20031;-69
2023/05/01 01:03:53;;;;;;;3.47;2.15;;;;;;;;;;5054946;28;20029;-69
2023/05/01 01:06:20;;;;;;;3.75;1.90;;;;;;;;;;5054713;28;20440;-69
2023/05/01 01:08:50;;;;;;;3.80;1.95;;;;;;;;;;5054554;28;20055;-69
2023/05/01 01:11:20;;;;;;;2.97;1.60;;;;;;;;;;5054628;28;20039;-69
2023/05/01 01:13:55;;;;;;;3.33;2.10;;;;;;;;;;5054545;28;20017;-69
2023/05/01 01:16:27;;;;;;;3.33;1.95;;;;;;;;;;5054556;28;20275;-69
2023/05/01 01:18:54;;;;;;;4.03;2.35;;;;;;;;;;5054513;28;20033;-69
2023/05/01 01:21:26;;;;;;;3.95;1.75;;;;;;;;;;5053838;28;20025;-69
2023/05/01 01:23:52;;;;;;;4.10;1.90;;;;;;;;;;5054581;28;20482;-69
2023/05/01 01:26:37;;;;;;;4.65;2.10;;;;;;;;;;5054353;28;20021;-69
2023/05/01 01:29:09;;;;;;;2.00;1.70;;;;;;;;;;5053872;28;20523;-69
2023/05/01 01:31:40;;;;;;;2.88;1.90;;;;;;;;;;5054175;28;20039;-69
2023/05/01 01:34:26;;;;;;;2.00;1.80;;;;;;;;;;5054276;28;20040;-69
2023/05/01 01:37:01;;;;;;;4.30;1.85;;;;;;;;;;5054005;28;20025;-71
2023/05/01 01:39:36;;;;;;;2.90;1.80;;;;;;;;;;5054198;28;20389;-70
2023/05/01 01:42:07;;;;;;;2.17;1.85;;;;;;;;;;5054218;28;20037;-70
2023/05/01 01:44:38;;;;;;;6.03;2.35;;;;;;;;;;5053933;28;20021;-70
2023/05/01 01:47:06;;;;;;;2.55;1.98;;;;;;;;;;5053915;28;20027;-71
2023/05/01 01:49:34;;;;;;;3.20;1.88;;;;;;;;;;5053714;28;20047;-70
2023/05/01 01:52:02;;;;;;;4.82;1.88;;;;;;;;;;5053636;28;20071;-70
2023/05/01 01:54:50;;;;;;;2.30;2.08;;;;;;;;;;5054051;28;20029;-70
2023/05/01 01:57:18;;;;;;;8.77;2.15;;;;;;;;;;5053516;28;20024;-70
2023/05/01 01:59:46;;;;;;;3.55;2.00;;;;;;;;;;5053889;28;20021;-71
2023/05/01 02:02:13;;;;;;;3.45;2.28;;;;;;;;;;5053750;28;20021;-71
2023/05/01 02:04:41;;;;;;;4.30;2.33;;;;;;;;;;5053615;28;20033;-70
2023/05/01 02:07:08;;;;;;;2.95;1.90;;;;;;;;;;5053295;28;20021;-69
2023/05/01 02:09:35;;;;;;;4.57;2.25;;;;;;;;;;5053191;28;20033;-70
2023/05/01 02:12:03;;;;;;;6.15;2.30;;;;;;;;;;5053637;28;20025;-69
2023/05/01 02:14:29;;;;;;;3.25;1.95;;;;;;;;;;5053808;28;20033;-69
2023/05/01 02:16:57;;;;;;;2.15;1.90;;;;;;;;;;5052268;28;20035;-70
2023/05/01 02:19:24;;;;;;;3.17;2.10;;;;;;;;;;5053302;28;20017;-70
2023/05/01 02:21:51;;;;;;;3.05;2.05;;;;;;;;;;5053119;28;20017;-70
2023/05/01 02:24:21;;;;;;;4.88;2.65;;;;;;;;;;5051876;28;20504;-71
2023/05/01 02:26:49;;;;;;;2.53;2.13;;;;;;;;;;5053342;28;20070;-70
2023/05/01 02:29:16;;;;;;;4.22;2.20;;;;;;;;;;5052739;28;20055;-70
2023/05/01 02:31:42;;;;;;;2.83;2.13;;;;;;;;;;5053166;28;20389;-70
2023/05/01 02:34:08;;;;;;;2.30;2.10;;;;;;;;;;5050877;28;20021;-70
2023/05/01 02:36:35;;;;;;;4.78;2.42;;;;;;;;;;5052588;28;20027;-70
2023/05/01 02:39:01;;;;;;;5.15;2.25;;;;;;;;;;5053019;28;20478;-70
2023/05/01 02:41:28;;;;;;;4.10;2.13;;;;;;;;;;5053098;28;20028;-70
2023/05/01 02:43:57;;;;;;;3.45;2.00;;;;;;;;;;5052824;28;20021;-71
2023/05/01 02:46:25;;;;;;;4.78;2.17;;;;;;;;;;5051732;28;20086;-70
2023/05/01 02:48:52;;;;;;;4.65;2.38;;;;;;;;;;5052519;28;20492;-70
2023/05/01 02:51:20;;;;;;;2.50;1.90;;;;;;;;;;5052666;28;20024;-70
2023/05/01 02:53:47;;;;;;;3.42;2.40;;;;;;;;;;5052804;28;20029;-69
2023/05/01 02:56:13;;;;;;;4.90;2.40;;;;;;;;;;5052577;28;20032;-70
2023/05/01 02:58:40;;;;;;;3.33;2.35;;;;;;;;;;5052524;28;20017;-70
2023/05/01 03:01:06;;;;;;;4.35;2.40;;;;;;;;;;5051146;28;20037;-70
2023/05/01 03:03:32;;;;;;;3.20;2.45;;;;;;;;;;5051425;28;20025;-70
2023/05/01 03:05:59;;;;;;;3.47;2.65;;;;;;;;;;5052514;28;20039;-70
2023/05/01 03:08:25;;;;;;;4.22;2.80;;;;;;;;;;5052396;28;20031;-70
2023/05/01 03:10:52;;;;;;;3.80;2.78;;;;;;;;;;5052137;28;20037;-70
2023/05/01 03:13:18;;;;;;;3.10;2.80;;;;;;;;;;5052315;28;20090;-70
2023/05/01 03:15:45;;;;;;;5.70;2.97;;;;;;;;;;5052349;28;20025;-69
2023/05/01 03:18:11;;;;;;;9.05;3.38;;;;;;;;;;5051913;28;20401;-70
2023/05/01 03:20:37;;;;;;;5.65;3.20;;;;;;;;;;5052596;28;20021;-70
2023/05/01 03:23:05;;;;;;;5.47;2.92;;;;;;;;;;5052252;28;20482;-70
2023/05/01 03:25:31;;;;;;;6.82;2.17;;;;;;;;;;5052089;28;20021;-70
2023/05/01 03:27:58;;;;;;;4.25;2.63;;;;;;;;;;5052267;28;20025;-70
2023/05/01 03:30:24;;;;;;;6.07;2.45;;;;;;;;;;5052054;28;20044;-70
2023/05/01 03:32:51;;;;;;;5.78;2.80;;;;;;;;;;5051823;28;20035;-70
2023/05/01 03:35:17;;;;;;;3.42;2.92;;;;;;;;;;5052016;28;20037;-70
2023/05/01 03:37:43;;;;;;;4.05;2.30;;;;;;;;;;5052344;28;20055;-70
2023/05/01 03:40:12;;;;;;;5.50;2.50;;;;;;;;;;5052192;28;20033;-70
2023/05/01 03:42:38;;;;;;;5.47;2.47;;;;;;;;;;5052105;28;20028;-70
2023/05/01 03:45:05;;;;;;;6.18;2.75;;;;;;;;;;5056037;28;20028;-70
2023/05/01 03:47:31;;;;;;;4.10;2.38;;;;;;;;;;5058448;28;20025;-70
2023/05/01 03:49:57;;;;;;;3.42;2.45;;;;;;;;;;5058472;28;20056;-70
2023/05/01 03:52:24;;;;;;;3.53;2.75;;;;;;;;;;5058638;28;20367;-70
2023/05/01 03:54:50;;;;;;;4.47;2.85;;;;;;;;;;5058458;28;20025;-70
2023/05/01 03:57:16;;;;;;;3.63;2.67;;;;;;;;;;5058403;28;20044;-70
2023/05/01 03:59:42;;;;;;;6.43;2.75;;;;;;;;;;5058669;28;20521;-70
2023/05/01 04:02:09;;;;;;;3.50;2.50;;;;;;;;;;5058188;28;20035;-70
2023/05/01 04:04:35;;;;;;;4.03;2.55;;;;;;;;;;5058588;28;20498;-69
2023/05/01 04:07:02;;;;;;;7.10;3.03;;;;;;;;;;5058381;28;20025;-70
2023/05/01 04:09:31;;;;;;;4.45;3.22;;;;;;;;;;5058456;28;20033;-70
2023/05/01 04:11:57;;;;;;;3.58;2.95;;;;;;;;;;5058449;28;20017;-70
2023/05/01 04:14:24;;;;;;;4.03;3.15;;;;;;;;;;5058584;28;20485;-70
2023/05/01 04:16:50;;;;;;;4.45;2.85;;;;;;;;;;5058213;28;20032;-70
2023/05/01 04:19:16;;;;;;;3.40;3.03;;;;;;;;;;5058134;28;20025;-70
2023/05/01 04:21:43;;;;;;;5.22;3.17;;;;;;;;;;5058654;28;20490;-70
2023/05/01 04:24:09;;;;;;;4.95;2.63;;;;;;;;;;5058470;28;20027;-70
2023/05/01 04:26:35;;;;;;;3.13;2.72;;;;;;;;;;5058601;28;20029;-70
2023/05/01 04:29:02;;;;;;;9.98;3.47;;;;;;;;;;5058447;28;20029;-70
2023/05/01 04:31:28;;;;;;;4.65;3.03;;;;;;;;;;5058052;28;20489;-70
2023/05/01 04:33:54;;;;;;;4.43;2.90;;;;;;;;;;5058343;28;20027;-71
2023/05/01 04:36:21;;;;;;;3.05;2.70;;;;;;;;;;5058185;28;20024;-70
2023/05/01 04:38:48;;;;;;;5.20;3.28;;;;;;;;;;5058208;28;20561;-70
2023/05/01 04:41:14;;;;;;;4.38;2.90;;;;;;;;;;5058591;28;20028;-70
2023/05/01 04:43:40;;;;;;;3.90;2.95;;;;;;;;;;5058373;28;20024;-70
2023/05/01 04:46:07;;;;;;;6.93;2.92;;;;;;;;;;5058278;28;20037;-70
2023/05/01 04:48:33;;;;;;;4.28;2.97;;;;;;;;;;5057938;28;20040;-71
2023/05/01 04:50:59;;;;;;;6.10;2.90;;;;;;;;;;5058145;28;20043;-70
2023/05/01 04:53:26;;;;;;;5.22;2.88;;;;;;;;;;5058258;28;20032;-70
2023/05/01 04:55:52;;;;;;;7.70;3.08;;;;;;;;;;5056295;28;20033;-70
2023/05/01 04:58:19;;;;;;;4.97;2.90;;;;;;;;;;5055093;28;20025;-70
2023/05/01 05:00:45;;;;;;;7.60;3.08;;;;;;;;;;5054587;28;20017;-70
2023/05/01 05:03:11;;;;;;;14.30;3.22;;;;;;;;;;5054794;28;20021;-70
2023/05/01 05:05:38;;;;;;;5.28;3.58;;;;;;;;;;5054943;28;20036;-70
2023/05/01 05:08:05;;;;;;;4.38;2.85;;;;;;;;;;5054593;28;20039;-70
2023/05/01 05:10:31;;;;;;;3.65;2.97;;;;;;;;;;5054655;28;20032;-70
2023/05/01 05:12:58;;;;;;;5.28;3.17;;;;;;;;;;5054593;28;20029;-70
2023/05/01 05:15:24;;;;;;;5.57;3.17;;;;;;;;;;5054411;28;20038;-70
2023/05/01 05:17:51;;;;;;;4.18;3.20;;;;;;;;;;5054994;28;20032;-70
2023/05/01 05:20:17;;;;;;;5.30;3.35;;;;;;;;;;5054545;28;20028;-70
2023/05/01 05:22:43;;;;;;;5.13;2.70;;;;;;;;;;5054404;28;20029;-70
2023/05/01 05:25:10;;;;;;;3.85;2.85;;;;;;;;;;5054376;28;20542;-70
2023/05/01 05:27:37;;;;;;;4.55;2.75;;;;;;;;;;5054439;28;20024;-70
2023/05/01 05:30:06;;;;;;;4.35;3.00;;;;;;;;;;5053903;28;20043;-70
2023/05/01 05:32:33;;;;;;;3.53;3.08;;;;;;;;;;5054499;28;20029;-70
2023/05/01 05:35:00;;;;;;;6.60;3.10;;;;;;;;;;5054377;28;20397;-70
2023/05/01 05:37:26;;;;;;;3.40;3.10;;;;;;;;;;5054575;28;20021;-70
2023/05/01 05:39:52;;;;;;;3.38;2.70;;;;;;;;;;5054166;28;20382;-70
2023/05/01 05:42:19;;;;;;;8.07;2.72;;;;;;;;;;5054203;28;20069;-70
2023/05/01 05:44:45;;;;;;;6.82;2.92;;;;;;;;;;5053605;28;20041;-70
2023/05/01 05:47:12;;;;;;;5.63;3.03;;;;;;;;;;5053942;28;20270;-70
2023/05/01 05:49:38;;;;;;;3.15;2.85;;;;;;;;;;5053764;28;20025;-70
2023/05/01 05:52:04;;;;;;;5.00;3.15;;;;;;;;;;5053746;28;20016;-70
2023/05/01 05:54:31;;;;;;;4.35;2.78;;;;;;;;;;5053759;28;20021;-70
2023/05/01 05:56:57;;;;;;;2.70;2.50;;;;;;;;;;5052442;28;20555;-70
2023/05/01 05:59:23;;;;;;;4.88;2.53;;;;;;;;;;5053393;28;20032;-70
2023/05/01 06:01:50;;;;;;;3.47;2.45;;;;;;;;;;5053852;28;20032;-70
2023/05/01 06:04:16;;;;;;;2.53;2.08;;;;;;;;;;5053641;28;20021;-70
2023/05/01 06:06:42;;;;;;;2.33;2.05;;;;;;;;;;5052121;28;20025;-70
2023/05/01 06:09:10;;;;;;;3.30;2.15;;;;;;;;;;5053578;28;20033;-70
2023/05/01 06:11:36;;;;;;;4.38;1.92;;;;;;;;;;5053560;28;20032;-71
2023/05/01 06:14:02;;;;;;;3.55;2.33;;;;;;;;;;5053195;28;20493;-70
2023/05/01 06:16:29;;;;;;;3.33;2.38;;;;;;;;;;5053462;28;20383;-70
2023/05/01 06:18:55;;;;;;;2.35;2.15;;;;;;;;;;5053158;28;20050;-70
2023/05/01 06:21:22;;;;;;;1.88;1.65;;;;;;;;;;5053252;28;20025;-70
2023/05/01 06:23:48;;;;;;;2.65;2.22;;;;;;;;;;5053443;28;20029;-71
2023/05/01 06:26:14;;;;;;;2.53;2.30;;;;;;;;;;5052817;28;20033;-71
2023/05/01 06:28:41;;;;;;;2.72;1.80;;;;;;;;;;5052936;28;20029;-71
2023/05/01 06:31:07;;;;;;;2.38;1.85;;;;;;;;;;5052939;28;20110;-70
2023/05/01 06:33:33;;;;;;;5.80;2.03;;;;;;;;;;5053035;28;20029;-70
2023/05/01 06:36:00;;;;;;;1.85;1.75;;;;;;;;;;5052954;28;20519;-70
2023/05/01 06:38:26;;;;;;;2.72;1.80;;;;;;;;;;5053138;28;20452;-70
2023/05/01 06:40:53;;;;;;;2.42;2.00;;;;;;;;;;5052594;28;20029;-70
2023/05/01 06:43:19;;;;;;;5.18;2.10;;;;;;;;;;5052772;28;20025;-70
2023/05/01 06:45:45;;;;;;;5.93;2.20;;;;;;;;;;5053202;28;20031;-70
2023/05/01 06:48:11;;;;;;;4.05;2.08;;;;;;;;;;5052621;28;20066;-70
2023/05/01 06:50:38;;;;;;;2.70;2.30;;;;;;;;;;5052546;28;20037;-70
2023/05/01 06:53:04;;;;;;;3.78;2.10;;;;;;;;;;5052663;28;20017;-70
2023/05/01 06:55:32;;;;;;;3.78;2.15;;;;;;;;;;5052412;28;20047;-70
2023/05/01 06:57:58;;;;;;;2.92;2.28;;;;;;;;;;5052571;28;20138;-70
2023/05/01 07:00:24;;;;;;;2.50;2.30;;;;;;;;;;5052489;28;20017;-70
2023/05/01 07:02:51;;;;;;;2.85;2.08;;;;;;;;;;5052694;28;20102;-70
2023/05/01 07:05:17;;;;;;;2.80;2.55;;;;;;;;;;5052552;28;20025;-71
2023/05/01 07:07:43;;;;;;;3.13;2.20;;;;;;;;;;5051375;28;20423;-71
2023/05/01 07:10:10;;;;;;;2.60;2.40;;;;;;;;;;5052508;28;20047;-70
2023/05/01 07:12:36;;;;;;;2.50;2.30;;;;;;;;;;5052817;28;20047;-71
2023/05/01 07:15:03;;;;;;;3.25;2.30;;;;;;;;;;5052567;28;20029;-70
2023/05/01 07:17:29;;;;;;;3.25;2.60;;;;;;;;;;5052419;28;20009;-70
2023/05/01 07:19:55;;;;;;;6.00;2.50;;;;;;;;;;5052288;28;20031;-71
2023/05/01 07:22:22;;;;;;;3.05;2.80;;;;;;;;;;5052905;28;20029;-70
2023/05/01 07:24:48;;;;;;;5.15;3.00;;;;;;;;;;5052041;28;20024;-70
2023/05/01 07:27:14;;;;;;;3.65;2.83;;;;;;;;;;5052364;28;20020;-70
2023/05/01 07:29:41;;;;;;;3.47;3.03;;;;;;;;;;5052147;28;20057;-70
2023/05/01 07:32:07;;;;;;;6.68;3.40;;;;;;;;;;5052226;28;20025;-70
2023/05/01 07:34:33;;;;;;;5.30;3.25;;;;;;;;;;5052272;28;20033;-70
2023/05/01 07:37:00;;;;;;;4.32;3.90;;;;;;;;;;5051963;28;20033;-70
2023/05/01 07:39:26;;;;;;;3.97;3.50;;;;;;;;;;5051677;28;20025;-71
2023/05/01 07:41:52;;;;;;;5.05;4.10;;;;;;;;;;5052197;28;20047;-70
2023/05/01 07:44:18;;;;;;;5.75;3.85;;;;;;;;;;5052012;28;20025;-70
2023/05/01 07:46:46;;;;;;;5.15;4.10;;;;;;;;;;5051791;28;20028;-70
2023/05/01 07:49:12;;;;;;;3.78;3.47;;;;;;;;;;5051875;28;20021;-71
2023/05/01 07:51:38;;;;;;;3.90;3.50;;;;;;;;;;5052026;28;20033;-70
2023/05/01 07:54:04;;;;;;;4.68;3.53;;;;;;;;;;5051545;28;20028;-70
2023/05/01 07:56:31;;;;;;;4.35;3.95;;;;;;;;;;5052033;28;20033;-70
2023/05/01 07:58:57;;;;;;;3.92;3.45;;;;;;;;;;5051798;28;20017;-70
2023/05/01 08:01:24;;;;;;;5.30;3.70;;;;;;;;;;5051641;28;20029;-70
2023/05/01 08:03:50;;;;;;;4.40;3.40;;;;;;;;;;5051778;28;20397;-70
2023/05/01 08:06:17;;;;;;;6.20;3.20;;;;;;;;;;5051655;28;20489;-70
2023/05/01 08:08:43;;;;;;;5.07;3.35;;;;;;;;;;5051622;28;20021;-70
2023/05/01 08:11:09;;;;;;;6.07;3.20;;;;;;;;;;5051615;28;20033;-70
2023/05/01 08:13:35;;;;;;;4.53;3.58;;;;;;;;;;5051882;28;20025;-70
2023/05/01 08:16:02;;;;;;;6.25;4.35;;;;;;;;;;5051663;28;20508;-70
2023/05/01 08:18:29;;;;;;;4.35;3.55;;;;;;;;;;5051858;28;20025;-70
2023/05/01 08:20:56;;;;;;;3.70;3.30;;;;;;;;;;5051591;28;20021;-70
2023/05/01 08:23:24;;;;;;;5.18;4.00;;;;;;;;;;5051283;28;20482;-70
2023/05/01 08:25:51;;;;;;;6.30;3.40;;;;;;;;;;5051651;28;20493;-70
2023/05/01 08:28:20;;;;;;;4.00;3.55;;;;;;;;;;5051491;28;20515;-70
2023/05/01 08:30:47;;;;;;;5.97;3.67;;;;;;;;;;5051329;28;20531;-70
2023/05/01 08:33:15;;;;;;;4.57;3.50;;;;;;;;;;5055481;28;20017;-70
2023/05/01 08:35:41;;;;;;;6.10;3.75;;;;;;;;;;5055447;28;20029;-70
2023/05/01 08:38:07;;;;;;;4.57;3.80;;;;;;;;;;5055092;28;20470;-70
2023/05/01 08:40:36;;;;;;;5.28;3.90;;;;;;;;;;5055242;28;20404;-70
2023/05/01 08:43:03;;;;;;;4.43;2.67;;;;;;;;;;5055492;28;20027;-70
2023/05/01 08:45:35;;;;;;;4.10;2.70;;;;;;;;;;5054998;28;20051;-70
2023/05/01 08:48:04;;;;;;;3.58;2.30;;;;;;;;;;5054988;28;20017;-70
2023/05/01 08:50:31;;;;;;;2.35;2.08;;;;;;;;;;5054886;28;20040;-70
2023/05/01 08:52:58;;;;;;;1.83;1.63;;;;;;;;;;5054963;28;20438;-70
2023/05/01 08:55:26;;;;;;;1.67;1.58;;;;;;;;;;5054838;28;20396;-70
2023/05/01 08:57:52;;;;;;;2.40;1.67;;;;;;;;;;5055031;28;20027;-71
2023/05/01 09:00:20;;;;;;;1.83;1.48;;;;;;;;;;5055027;28;20028;-70
2023/05/01 09:02:47;;;;;;;1.17;1.08;;;;;;;;;;5054744;28;20021;-70
2023/05/01 09:05:16;;;;;;;2.38;1.40;;;;;;;;;;5053797;28;20033;-71
2023/05/01 09:07:43;;;;;;;1.30;1.20;;;;;;;;;;5054824;28;20018;-70
2023/05/01 09:10:10;;;;;;;1.77;1.08;;;;;;;;;;5054688;28;20040;-70
2023/05/01 09:12:37;;;;;;;2.38;1.10;;;;;;;;;;5054558;28;20027;-71
2023/05/01 09:15:06;;;;;;;3.10;1.00;;;;;;;;;;5055278;28;20025;-71
2023/05/01 09:17:32;;;;;;;1.20;1.10;;;;;;;;;;5054539;28;20115;-70
2023/05/01 09:19:58;;;;;;;1.30;1.08;;;;;;;;;;5054580;28;20025;-71
2023/05/01 09:22:25;;;;;;;1.55;1.27;;;;;;;;;;5054338;28;20017;-71
2023/05/01 09:24:51;;;;;;;2.45;1.60;;;;;;;;;;5054501;28;20043;-71
2023/05/01 09:27:18;;;;;;;1.98;1.75;;;;;;;;;;5054177;28;20020;-71
2023/05/01 09:29:46;;;;;;;2.35;1.45;;;;;;;;;;5054093;28;20126;-70
2023/05/01 09:32:15;;;;;;;1.73;1.42;;;;;;;;;;5054205;28;20049;-70
2023/05/01 09:34:42;;;;;;;1.42;1.30;;;;;;;;;;5054194;28;20025;-71
2023/05/01 09:37:10;;;;;;;2.95;1.67;;;;;;;;;;5054379;28;20021;-71
2023/05/01 09:39:37;;;;;;;2.20;2.00;;;;;;;;;;5054334;28;20032;-70
2023/05/01 09:42:04;;;;;;;2.08;1.83;;;;;;;;;;5053696;28;20025;-71
2023/05/01 09:44:30;;;;;;;1.75;1.65;;;;;;;;;;5054315;28;20029;-69
2023/05/01 09:46:56;;;;;;;2.00;1.90;;;;;;;;;;5053963;28;20029;-70
2023/05/01 09:49:43;;;;;;;2.22;2.03;;;;;;;;;;5053713;28;20035;-71
2023/05/01 09:52:13;;;;;;;2.22;2.00;;;;;;;;;;5053784;28;20031;-70
2023/05/01 09:54:40;;;;;;;2.28;1.65;;;;;;;;;;5053957;28;20025;-70
2023/05/01 09:57:06;;;;;;;2.38;1.75;;;;;;;;;;5053637;28;20027;-69
2023/05/01 09:59:33;;;;;;;2.10;1.80;;;;;;;;;;5053667;28;20426;-70
2023/05/01 10:02:00;;;;;;;2.30;2.10;;;;;;;;;;5053692;28;20020;-68
2023/05/01 10:04:33;;;;;;;2.28;1.95;;;;;;;;;;5053757;28;20021;-69
2023/05/01 10:07:15;;;;;;;2.47;1.92;;;;;;;;;;5053958;28;20021;-70
2023/05/01 10:09:41;;;;;;;3.75;2.15;;;;;;;;;;5053533;28;20420;-70
2023/05/01 10:12:07;;;;;;;2.47;2.20;;;;;;;;;;5053397;28;20420;-70
2023/05/01 10:14:38;;;;;;;2.22;1.85;;;;;;;;;;5053729;28;20029;-70
2023/05/01 10:17:18;;;;;;;2.67;1.88;;;;;;;;;;5053370;28;20023;-70
2023/05/01 10:19:46;;;;;;;1.83;1.63;;;;;;;;;;5053305;28;20021;-70
2023/05/01 10:22:12;;;;;;;2.35;2.05;;;;;;;;;;5053502;28;20079;-70
2023/05/01 10:24:39;;;;;;;2.47;1.80;;;;;;;;;;5053054;28;20024;-70
2023/05/01 10:27:09;;;;;;;2.17;1.88;;;;;;;;;;5053186;28;20443;-70
2023/05/01 10:29:36;;;;;;;1.88;1.75;;;;;;;;;;5053106;28;20034;-70
2023/05/01 10:32:03;;;;;;;2.42;1.60;;;;;;;;;;5053251;28;20021;-70
2023/05/01 10:34:31;;;;;;;2.05;1.67;;;;;;;;;;5053070;28;20025;-71
2023/05/01 10:37:00;;;;;;;2.22;1.63;;;;;;;;;;5052981;28;20029;-71
2023/05/01 10:39:33;;;;;;;1.67;1.58;;;;;;;;;;5052934;28;20029;-71
2023/05/01 10:42:03;;;;;;;1.73;1.50;;;;;;;;;;5052890;28;20023;-71
2023/05/01 10:44:29;;;;;;;2.10;1.47;;;;;;;;;;5053247;28;20031;-71
2023/05/01 10:46:56;;;;;;;1.35;1.25;;;;;;;;;;5052734;28;20503;-71
2023/05/01 10:49:23;;;;;;;1.70;1.42;;;;;;;;;;5052748;28;20029;-71
2023/05/01 10:51:58;;;;;;;1.48;1.38;;;;;;;;;;5052927;28;20025;-71
2023/05/01 10:54:25;;;;;;;1.20;1.20;;;;;;;;;;5052175;28;20039;-71
2023/05/01 10:56:52;;;;;;;1.23;1.23;;;;;;;;;;5051332;28;20017;-69
2023/05/01 10:59:19;;;;;;;1.63;1.23;;;;;;;;;;5052697;28;20031;-69
2023/05/01 11:01:47;;;;;;;1.58;1.48;;;;;;;;;;5052372;28;20013;-71
2023/05/01 11:04:22;;;;;;;2.15;1.50;;;;;;;;;;5052695;28;20033;-71
2023/05/01 11:07:04;;;;;;;2.13;1.40;;;;;;;;;;5052372;28;20059;-70
2023/05/01 11:09:40;;;;;;;1.50;1.40;;;;;;;;;;5052193;28;20037;-70
2023/05/01 11:12:08;;;;;;;1.20;1.10;;;;;;;;;;5052340;28;20025;-70
2023/05/01 11:14:53;;;;;;;1.52;1.15;;;;;;;;;;5052300;28;20025;-70
2023/05/01 11:17:37;;;;;;;1.55;1.10;;;;;;;;;;5052097;28;20017;-70
2023/05/01 11:20:04;;;;;;;4.85;1.20;;;;;;;;;;5052151;28;20021;-70
2023/05/01 11:22:31;;;;;;;1.23;1.10;;;;;;;;;;5052450;28;20021;-70
2023/05/01 11:24:57;;;;;;;1.65;0.98;;;;;;;;;;5052270;28;20083;-70
2023/05/01 11:27:24;;;;;;;0.98;0.90;;;;;;;;;;5052276;28;20036;-70
2023/05/01 11:29:50;;;;;;;1.70;0.93;;;;;;;;;;5052022;28;20498;-70
2023/05/01 11:32:18;;;;;;;1.10;0.90;;;;;;;;;;5051974;28;20385;-71
2023/05/01 11:34:45;;;;;;;1.80;1.23;;;;;;;;;;5052374;28;20021;-70
2023/05/01 11:37:12;;;;;;;1.73;0.70;;;;;;;;;;5051928;28;20486;-70
2023/05/01 11:39:46;;;;;;;1.17;0.95;;;;;;;;;;5051948;28;20470;-70
2023/05/01 11:42:12;;;;;;;0.93;0.80;;;;;;;;;;5052261;28;20107;-70
2023/05/01 11:44:38;;;;;;;1.58;0.90;;;;;;;;;;5052004;28;20021;-71
2023/05/01 11:47:06;;;;;;;1.58;0.80;;;;;;;;;;5051727;28;20035;-71
2023/05/01 11:49:32;;;;;;;1.10;0.88;;;;;;;;;;5051749;28;20397;-71
2023/05/01 11:51:59;;;;;;;1.10;1.00;;;;;;;;;;5051870;28;20021;-71
2023/05/01 11:54:26;;;;;;;2.60;0.70;;;;;;;;;;5051987;28;20086;-72
2023/05/01 11:56:59;;;;;;;1.08;0.77;;;;;;;;;;5051998;28;20023;-69
2023/05/01 11:59:26;;;;;;;0.82;0.75;;;;;;;;;;5051935;28;20021;-69
2023/05/01 12:01:52;;;;;;;0.88;0.70;;;;;;;;;;5051796;28;20013;-72
2023/05/01 12:04:26;;;;;;;0.90;0.90;;;;;;;;;;5051818;28;20389;-71
2023/05/01 12:06:52;;;;;;;0.70;0.70;;;;;;;;;;5055270;28;20031;-72
2023/05/01 12:09:21;;;;;;;0.80;0.70;;;;;;;;;;5055641;28;20035;-71
2023/05/01 12:11:48;;;;;;;0.70;0.70;;;;;;;;;;5055893;28;20025;-71
2023/05/01 12:14:15;;;;;;;5.15;0.93;;;;;;;;;;5055464;28;20027;-71
2023/05/01 12:16:41;;;;;;;1.33;0.68;;;;;;;;;;5055610;28;20036;-72
2023/05/01 12:19:08;;;;;;;1.58;0.60;;;;;;;;;;5055735;28;20021;-71
2023/05/01 12:21:36;;;;;;;0.70;0.70;;;;;;;;;;5055538;28;20055;-71
2023/05/01 12:24:16;;;;;;;0.80;0.80;;;;;;;;;;5055716;28;20404;-71
2023/05/01 12:26:43;;;;;;;0.90;0.75;;;;;;;;;;5055516;28;20029;-71
2023/05/01 12:29:10;;;;;;;1.02;0.90;;;;;;;;;;5055181;28;20061;-71
2023/05/01 12:31:37;;;;;;;0.77;0.77;;;;;;;;;;5055445;28;20045;-70
2023/05/01 12:34:04;;;;;;;0.88;0.80;;;;;;;;;;5055462;28;20028;-71
2023/05/01 12:36:32;;;;;;;1.48;1.00;;;;;;;;;;5055573;28;20012;-71
2023/05/01 12:39:04;;;;;;;1.77;0.88;;;;;;;;;;5055139;28;20035;-71
2023/05/01 12:41:47;;;;;;;2.00;0.77;;;;;;;;;;5055146;28;20025;-71
2023/05/01 12:44:26;;;;;;;1.52;0.80;;;;;;;;;;5054969;28;20029;-70
2023/05/01 12:46:54;;;;;;;0.98;0.60;;;;;;;;;;5055099;28;20068;-70
2023/05/01 12:49:21;;;;;;;0.70;0.70;;;;;;;;;;5054812;28;20021;-71
2023/05/01 12:51:48;;;;;;;2.40;0.73;;;;;;;;;;5055322;28;20031;-71
2023/05/01 12:54:20;;;;;;;0.63;0.63;;;;;;;;;;5055079;28;20029;-71
2023/05/01 12:56:46;;;;;;;2.00;0.85;;;;;;;;;;5054811;28;20025;-71
2023/05/01 12:59:26;;;;;;;1.95;0.80;;;;;;;;;;5054775;28;20074;-70
2023/05/01 13:02:02;;;;;;;2.55;0.80;;;;;;;;;;5054917;28;20421;-70
2023/05/01 13:04:29;;;;;;;0.73;0.73;;;;;;;;;;5054888;28;20478;-71
2023/05/01 13:06:56;;;;;;;1.52;1.02;;;;;;;;;;5054905;28;20033;-71
2023/05/01 13:09:23;;;;;;;2.28;1.00;;;;;;;;;;5054659;28;20021;-71
2023/05/01 13:12:10;;;;;;;1.27;0.77;;;;;;;;;;5054759;28;20021;-71
2023/05/01 13:14:37;;;;;;;1.00;0.77;;;;;;;;;;5054366;28;20025;-71
2023/05/01 13:17:05;;;;;;;1.05;0.80;;;;;;;;;;5053578;28;20405;-71
2023/05/01 13:19:32;;;;;;;3.00;0.80;;;;;;;;;;5054423;28;20504;-71
2023/05/01 13:21:58;;;;;;;0.55;0.55;;;;;;;;;;5054423;28;20033;-71
2023/05/01 13:24:45;;;;;;;1.08;0.80;;;;;;;;;;5054703;28;20037;-70
2023/05/01 13:27:12;;;;;;;1.52;0.80;;;;;;;;;;5054109;28;20025;-71
2023/05/01 13:29:40;;;;;;;0.60;0.60;;;;;;;;;;5053267;28;20045;-71
2023/05/01 13:32:09;;;;;;;0.75;0.57;;;;;;;;;;5054383;28;20027;-71
2023/05/01 13:34:36;;;;;;;1.42;0.60;;;;;;;;;;5054254;28;20382;-70
2023/05/01 13:37:02;;;;;;;0.98;0.60;;;;;;;;;;5053327;28;20039;-70
2023/05/01 13:39:29;;;;;;;0.82;0.80;;;;;;;;;;5054308;28;20025;-70
2023/05/01 13:41:55;;;;;;;0.88;0.70;;;;;;;;;;5053985;28;20038;-71
2023/05/01 13:44:22;;;;;;;1.33;0.70;;;;;;;;;;5054442;28;20029;-71
2023/05/01 13:46:49;;;;;;;3.38;0.90;;;;;;;;;;5053973;28;20490;-71
2023/05/01 13:49:17;;;;;;;0.70;0.70;;;;;;;;;;5052792;28;20023;-70
2023/05/01 13:51:45;;;;;;;0.50;0.50;;;;;;;;;;5053869;28;20047;-70
2023/05/01 13:54:12;;;;;;;2.25;0.73;;;;;;;;;;5053858;28;20017;-70
2023/05/01 13:56:40;;;;;;;2.72;0.60;;;;;;;;;;5053463;28;20032;-71
2023/05/01 13:59:06;;;;;;;0.68;0.50;;;;;;;;;;5053921;28;20029;-71
2023/05/01 14:01:40;;;;;;;0.60;0.60;;;;;;;;;;5053519;28;20493;-70
2023/05/01 14:04:09;;;;;;;0.77;0.77;;;;;;;;;;5053611;28;20051;-70
2023/05/01 14:06:42;;;;;;;0.80;0.80;;;;;;;;;;5053850;28;20017;-71
2023/05/01 14:09:08;;;;;;;0.88;0.88;;;;;;;;;;5053530;28;20040;-70
2023/05/01 14:11:40;;;;;;;1.00;0.65;;;;;;;;;;5053349;28;20029;-71
2023/05/01 14:14:07;;;;;;;1.05;0.90;;;;;;;;;;5053410;28;20051;-69
2023/05/01 14:16:33;;;;;;;2.47;0.80;;;;;;;;;;5053649;28;20033;-70
2023/05/01 14:19:00;;;;;;;1.50;0.88;;;;;;;;;;5053388;28;20017;-69
2023/05/01 14:21:26;;;;;;;0.90;0.70;;;;;;;;;;5053138;28;20051;-71
2023/05/01 14:23:54;;;;;;;1.73;0.60;;;;;;;;;;5053296;28;20028;-71
2023/05/01 14:26:22;;;;;;;2.78;0.70;;;;;;;;;;5053107;28;20021;-71
2023/05/01 14:28:49;;;;;;;2.33;0.70;;;;;;;;;;5053025;28;20025;-70
2023/05/01 14:31:26;;;;;;;0.70;0.70;;;;;;;;;;5053258;28;20048;-70
2023/05/01 14:33:53;;;;;;;0.90;0.70;;;;;;;;;;5053386;28;20033;-70
2023/05/01 14:36:20;;;;;;;2.45;0.77;;;;;;;;;;5053298;28;20487;-70
2023/05/01 14:38:48;;;;;;;4.18;0.75;;;;;;;;;;5052067;28;20031;-70
2023/05/01 14:41:15;;;;;;;1.38;0.70;;;;;;;;;;5053024;28;20028;-70
2023/05/01 14:43:43;;;;;;;3.97;0.90;;;;;;;;;;5052996;28;20029;-70
2023/05/01 14:46:11;;;;;;;1.98;0.95;;;;;;;;;;5053170;28;20033;-70